Terminal Aerodrome Forecast
Issued by NWS North Platte, NE

Home | Current Version | Previous Version | Text Only | Print | Product List | Glossary On
Versions: 1 2 3 4 5 6 7 8 9 10 11 12 13
000
FTUS43 KLBF 290400 AAA
TAFLBF
TAF AMD
KLBF 290416Z 2904/2924 33017G25KT P6SM SCT100
     FM290500 34020G30KT P6SM OVC020
     FM290900 33014G21KT P6SM OVC020
     FM291400 33012G17KT P6SM SCT030
     FM291800 34011KT P6SM SCT250=

USA.gov is the U.S. government's official web portal to all federal, state and local government web resources and services.